Time;durP1;ratioP1;P1;durP2;ratioP2;P2;SDS_P1;SDS_P2;PMS_P1;PMS_P2;Temp;Humidity;BMP_temperature;BMP_pressure;BME280_temperature;BME280_humidity;BME280_pressure;Samples;Min_cycle;Max_cycle;Signal;HPM_P1;HPM_P2
2022/11/03 00:00:31;;;;;;;15.10;7.22;;;;;;;11.84;59.41;101001.41;4933002;28;96746;-88
2022/11/03 00:02:57;;;;;;;13.02;7.57;;;;;;;11.80;59.31;100994.47;4954480;28;98310;-89
2022/11/03 00:08:07;;;;;;;18.15;7.68;;;;;;;11.65;60.02;101008.06;4937651;28;101409;-89
2022/11/03 00:10:33;;;;;;;17.08;7.85;;;;;;;11.61;60.21;101003.81;4959918;28;97346;-88
2022/11/03 00:12:58;;;;;;;20.08;8.15;;;;;;;11.64;60.07;100999.31;4937315;28;97048;-88
2022/11/03 00:15:24;;;;;;;14.18;7.63;;;;;;;11.51;59.92;100993.50;4937995;28;100188;-88
2022/11/03 00:17:50;;;;;;;16.15;7.43;;;;;;;11.46;59.61;100978.78;4937885;28;101203;-88
2022/11/03 00:20:15;;;;;;;14.63;7.28;;;;;;;11.67;59.74;101009.75;4938006;28;96899;-89
2022/11/03 00:22:41;;;;;;;17.90;8.48;;;;;;;11.32;59.03;100952.88;4929103;28;96764;-88
2022/11/03 00:25:07;;;;;;;19.90;8.18;;;;;;;11.56;59.50;101009.19;4951815;28;101534;-88
2022/11/03 00:27:32;;;;;;;21.83;8.38;;;;;;;11.46;59.52;100995.44;4962610;28;100966;-87
2022/11/03 00:29:58;;;;;;;17.75;8.52;;;;;;;11.42;60.08;101000.78;4921717;28;97155;-88
2022/11/03 00:32:24;;;;;;;19.13;8.07;;;;;;;11.36;59.57;100986.06;4938048;28;97222;-88
2022/11/03 00:34:49;;;;;;;17.00;7.97;;;;;;;11.36;59.89;101006.22;4937965;28;101328;-88
2022/11/03 00:37:15;;;;;;;19.15;8.50;;;;;;;11.20;59.91;100972.47;4938072;28;101405;-87
2022/11/03 00:39:41;;;;;;;23.42;8.25;;;;;;;11.32;60.23;101001.03;4951069;28;97057;-88
2022/11/03 00:42:07;;;;;;;27.30;8.98;;;;;;;11.28;60.38;101006.41;4952216;28;96934;-87
2022/11/03 00:44:32;;;;;;;28.42;10.25;;;;;;;11.17;60.20;100975.19;4935599;28;101114;-87
2022/11/03 00:46:58;;;;;;;27.08;9.43;;;;;;;11.28;60.20;100991.50;4921843;28;101805;-88
2022/11/03 00:49:24;;;;;;;28.80;9.93;;;;;;;10.97;60.19;100946.78;4931419;28;96692;-88
2022/11/03 00:51:49;;;;;;;28.77;9.45;;;;;;;11.01;60.31;100966.81;4937023;28;97083;-87
2022/11/03 00:54:15;;;;;;;27.15;10.07;;;;;;;10.87;60.17;100948.75;4950944;28;101534;-89
2022/11/03 00:56:41;;;;;;;20.63;8.63;;;;;;;11.04;60.04;100973.75;4928236;28;101556;-88
2022/11/03 00:59:08;;;;;;;18.52;8.40;;;;;;;11.14;60.71;100992.75;4921271;28;97423;-88
2022/11/03 01:01:36;;;;;;;24.38;8.63;;;;;;;10.93;59.65;100963.50;4928080;28;97233;-88
2022/11/03 01:06:49;;;;;;;15.63;7.30;;;;;;;11.03;60.02;100982.56;4931959;28;101279;-88
2022/11/03 01:09:20;;;;;;;22.40;8.55;;;;;;;11.00;60.43;100993.13;4930895;28;96967;-90
2022/11/03 01:12:01;;;;;;;20.33;7.15;;;;;;;11.02;60.20;100994.78;4954728;28;96622;-88
2022/11/03 01:14:29;;;;;;;28.77;8.15;;;;;;;10.87;60.64;100993.41;4937786;28;100955;-88
2022/11/03 01:16:55;;;;;;;21.88;9.02;;;;;;;10.92;60.36;100993.31;4936276;28;100991;-88
2022/11/03 01:19:22;;;;;;;18.42;8.60;;;;;;;10.78;60.37;100972.63;4954525;28;96797;-88
2022/11/03 01:21:48;;;;;;;18.05;7.80;;;;;;;10.85;60.38;100983.88;4970162;28;96895;-87
2022/11/03 01:24:14;;;;;;;19.70;8.18;;;;;;;10.86;60.11;100981.19;4937428;28;100098;-89
2022/11/03 01:26:39;;;;;;;21.83;7.40;;;;;;;10.78;60.33;100974.41;4953884;28;101241;-88
2022/11/03 01:29:05;;;;;;;16.33;7.28;;;;;;;10.37;60.42;100916.75;4954208;28;96829;-87
2022/11/03 01:31:31;;;;;;;15.98;7.90;;;;;;;10.66;60.65;100975.56;4937263;28;97164;-87
2022/11/03 01:33:57;;;;;;;19.17;7.95;;;;;;;10.45;60.47;100955.09;4953221;28;101563;-88
2022/11/03 01:36:23;;;;;;;21.00;8.50;;;;;;;10.40;60.44;100958.66;4937178;28;101385;-88
2022/11/03 01:38:49;;;;;;;22.88;8.57;;;;;;;10.62;60.81;101001.03;4928270;28;97217;-87
2022/11/03 01:41:17;;;;;;;24.80;8.30;;;;;;;10.51;60.82;100975.94;4930945;28;97160;-87
2022/11/03 01:43:43;;;;;;;22.90;8.95;;;;;;;10.59;60.36;100985.34;4953460;28;101073;-88
2022/11/03 01:46:17;;;;;;;20.27;9.27;;;;;;;10.63;60.08;100994.03;4973378;28;101070;-88
2022/11/03 01:48:50;;;;;;;18.00;8.23;;;;;;;10.61;60.07;100990.56;4972882;28;97796;-88
2022/11/03 01:51:20;;;;;;;23.55;8.45;;;;;;;10.49;60.23;100975.97;4941354;28;97990;-90
2022/11/03 01:53:47;;;;;;;17.63;8.20;;;;;;;10.44;60.47;100980.44;4960196;28;100606;-89
2022/11/03 01:56:15;;;;;;;23.38;8.40;;;;;;;10.44;60.40;100988.31;4976756;28;98344;-87
2022/11/03 01:58:43;;;;;;;21.27;9.48;;;;;;;10.19;60.60;100967.00;4973050;28;97244;-88
2022/11/03 02:01:08;;;;;;;20.75;9.02;;;;;;;10.43;60.48;100991.84;4938569;28;97193;-88
2022/11/03 02:03:37;;;;;;;20.55;8.07;;;;;;;10.05;60.43;100938.44;4965987;28;99586;-88
2022/11/03 02:06:03;;;;;;;17.20;9.00;;;;;;;10.20;60.33;100950.34;4962776;28;101300;-88
2022/11/03 02:08:35;;;;;;;17.13;7.50;;;;;;;10.22;60.49;100950.31;4968448;28;97271;-88
2022/11/03 02:12:05;;;;;;;19.85;7.65;;;;;;;10.23;60.59;100958.16;4976591;28;97027;-87
2022/11/03 02:13:46;;;;;;;15.07;7.85;;;;;;;10.32;60.58;100971.09;4975525;28;101617;-88
2022/11/03 02:16:13;;;;;;;17.80;8.38;;;;;;;9.95;61.02;100924.66;4944035;28;101120;-88
2022/11/03 02:18:39;;;;;;;17.98;7.78;;;;;;;10.17;60.86;100948.66;4957287;28;96731;-88
2022/11/03 02:21:27;;;;;;;19.63;7.32;;;;;;;10.25;60.84;100960.75;4960161;28;96930;-88
2022/11/03 02:23:56;;;;;;;16.52;8.10;;;;;;;10.18;60.58;100953.03;4944015;28;101559;-88
2022/11/03 02:26:22;;;;;;;17.10;7.40;;;;;;;10.25;60.07;100932.75;4959403;28;101320;-88
2022/11/03 02:28:47;;;;;;;13.38;7.13;;;;;;;10.24;60.65;100949.41;4944224;28;97059;-88
2022/11/03 02:31:25;;;;;;;15.73;7.43;;;;;;;10.16;60.39;100949.56;4960607;28;96902;-88
2022/11/03 02:34:00;;;;;;;15.18;7.13;;;;;;;10.09;60.61;100941.84;4964262;28;101697;-87
2022/11/03 02:36:48;;;;;;;24.17;7.88;;;;;;;10.01;61.05;100939.41;4970985;28;101584;-89
2022/11/03 02:39:18;;;;;;;14.10;7.57;;;;;;;10.00;60.76;100944.69;4959729;28;97520;-88
2022/11/03 02:41:45;;;;;;;18.92;8.18;;;;;;;9.94;61.00;100940.44;4957848;28;96837;-88
2022/11/03 02:44:15;;;;;;;19.63;9.48;;;;;;;9.87;60.63;100920.50;4983065;28;98649;-88
2022/11/03 02:46:42;;;;;;;20.42;8.90;;;;;;;9.92;60.41;100937.00;4970570;28;100122;-88
2022/11/03 02:49:08;;;;;;;22.02;8.77;;;;;;;9.88;60.95;100944.03;4971053;28;97086;-89
2022/11/03 02:51:33;;;;;;;18.88;8.63;;;;;;;9.86;60.82;100937.09;4979074;28;96519;-88
2022/11/03 02:54:09;;;;;;;22.45;9.27;;;;;;;9.80;61.04;100940.72;4925917;28;101416;-88
2022/11/03 02:56:39;;;;;;;19.70;8.52;;;;;;;9.68;60.79;100923.47;4976044;28;101496;-89
2022/11/03 02:59:09;;;;;;;21.05;9.68;;;;;;;9.55;60.73;100908.91;4960744;28;96673;-88
2022/11/03 03:01:45;;;;;;;20.48;9.77;;;;;;;9.32;60.75;100858.75;4986208;28;96857;-88
2022/11/03 03:04:21;;;;;;;26.17;9.93;;;;;;;9.52;60.68;100906.38;4958139;28;99998;-88
2022/11/03 03:07:02;;;;;;;23.02;9.48;;;;;;;9.48;61.11;100896.81;4956303;28;100585;-88
2022/11/03 03:09:33;;;;;;;20.33;8.75;;;;;;;9.63;61.29;100938.47;4972848;28;96837;-87
2022/11/03 03:11:59;;;;;;;19.48;9.35;;;;;;;9.47;60.88;100908.19;4959287;28;97031;-88
2022/11/03 03:14:30;;;;;;;18.30;8.85;;;;;;;9.15;60.87;100866.91;4958850;28;99940;-90
2022/11/03 03:16:59;;;;;;;19.10;9.07;;;;;;;9.55;60.99;100929.03;4963720;28;99686;-88
2022/11/03 03:19:46;;;;;;;18.38;8.52;;;;;;;9.52;61.19;100928.19;4963609;28;96982;-90
2022/11/03 03:22:26;;;;;;;15.70;8.77;;;;;;;9.32;60.51;100890.19;4976065;28;96890;-87
2022/11/03 03:24:54;;;;;;;15.60;7.05;;;;;;;9.43;60.93;100906.56;4956581;28;101743;-91
2022/11/03 03:27:22;;;;;;;14.80;7.47;;;;;;;9.35;61.05;100911.94;4972624;28;97094;-88
2022/11/03 03:29:55;;;;;;;16.73;8.00;;;;;;;9.23;60.57;100897.31;4958139;28;96737;-88
2022/11/03 03:32:23;;;;;;;14.00;7.85;;;;;;;9.26;61.36;100919.97;4943581;28;97094;-89
2022/11/03 03:34:50;;;;;;;12.60;6.75;;;;;;;9.28;61.15;100897.25;4974236;28;100088;-87
2022/11/03 03:37:16;;;;;;;13.40;6.45;;;;;;;9.23;60.94;100896.47;4974220;28;100842;-88
2022/11/03 03:39:46;;;;;;;14.65;6.65;;;;;;;9.30;61.04;100912.00;4958754;28;96659;-87
2022/11/03 03:42:13;;;;;;;14.77;6.40;;;;;;;9.24;60.90;100911.28;4965561;28;97250;-88
2022/11/03 03:44:39;;;;;;;11.05;5.90;;;;;;;8.84;61.80;100855.28;4958989;28;100774;-87
2022/11/03 03:47:16;;;;;;;14.15;6.93;;;;;;;9.09;61.14;100877.53;4943371;28;101076;-88
2022/11/03 03:49:44;;;;;;;12.35;6.55;;;;;;;8.81;61.08;100823.94;4977632;28;96956;-88
2022/11/03 03:52:10;;;;;;;19.70;8.10;;;;;;;8.90;61.04;100851.69;4971591;28;96935;-88
2022/11/03 03:54:36;;;;;;;19.52;7.50;;;;;;;8.99;61.10;100874.22;4971608;28;97917;-87
2022/11/03 03:57:03;;;;;;;13.90;7.22;;;;;;;9.16;61.45;100905.31;4958474;28;101226;-87
2022/11/03 03:59:29;;;;;;;17.27;6.25;;;;;;;8.70;61.55;100841.59;4968186;28;96873;-88
2022/11/03 04:01:55;;;;;;;18.85;6.93;;;;;;;9.08;61.49;100892.38;4959048;28;96888;-87
2022/11/03 04:04:21;;;;;;;14.77;6.60;;;;;;;9.15;61.23;100903.59;4938288;28;101913;-87
2022/11/03 04:06:46;;;;;;;12.52;6.80;;;;;;;8.78;61.29;100836.19;4988618;28;97992;-87
2022/11/03 04:09:12;;;;;;;14.07;7.32;;;;;;;9.03;61.20;100884.59;4972990;28;97178;-87
2022/11/03 04:22:55;;;;;;;16.80;7.45;;;;;;;8.95;60.98;100881.25;4958592;28;97417;-88
2022/11/03 04:25:20;;;;;;;14.07;7.63;;;;;;;8.74;61.43;100847.63;4957851;28;100494;-87
2022/11/03 04:27:46;;;;;;;15.93;7.70;;;;;;;8.84;61.58;100884.09;4954126;28;100358;-88
2022/11/03 04:30:19;;;;;;;16.15;6.60;;;;;;;8.89;61.17;100875.28;4958100;28;98046;-87
2022/11/03 04:32:48;;;;;;;17.98;7.43;;;;;;;8.83;61.50;100881.47;4957735;28;97049;-88
2022/11/03 04:35:19;;;;;;;13.60;6.38;;;;;;;8.84;61.91;100880.56;4956226;28;98618;-88
2022/11/03 04:37:48;;;;;;;18.02;7.63;;;;;;;8.87;61.48;100879.66;4953893;28;101030;-88
2022/11/03 04:40:15;;;;;;;17.02;7.35;;;;;;;8.53;61.45;100826.19;4955096;28;96840;-88
2022/11/03 04:42:41;;;;;;;11.80;6.22;;;;;;;8.87;60.92;100882.28;4974245;28;97016;-88
2022/11/03 04:45:22;;;;;;;15.38;6.60;;;;;;;8.95;61.15;100876.00;4940849;28;101429;-88
2022/11/03 04:47:48;;;;;;;15.73;6.97;;;;;;;8.73;61.15;100849.38;4957072;28;101206;-88
2022/11/03 04:50:18;;;;;;;11.45;6.30;;;;;;;8.73;61.70;100853.75;4958000;28;96616;-89
2022/11/03 04:52:45;;;;;;;16.02;6.57;;;;;;;8.82;61.07;100878.00;4973266;28;96734;-88
2022/11/03 04:55:14;;;;;;;17.35;6.80;;;;;;;8.78;61.53;100868.47;4957597;28;101343;-88
2022/11/03 04:57:40;;;;;;;16.75;6.68;;;;;;;8.81;61.18;100873.66;4973201;28;97845;-88
2022/11/03 05:00:06;;;;;;;13.30;6.65;;;;;;;8.78;61.63;100872.84;4974498;28;98078;-89
2022/11/03 05:02:32;;;;;;;12.68;6.35;;;;;;;8.70;61.58;100867.75;4977458;28;96929;-89
2022/11/03 05:04:58;;;;;;;13.73;6.75;;;;;;;8.59;61.15;100839.16;4964828;28;100091;-88
2022/11/03 05:07:28;;;;;;;15.88;7.75;;;;;;;8.73;61.04;100859.00;4958988;28;101163;-88
2022/11/03 05:09:54;;;;;;;17.25;6.80;;;;;;;8.61;61.08;100845.22;4972050;28;96827;-88
2022/11/03 05:12:20;;;;;;;14.70;6.40;;;;;;;8.71;60.86;100852.91;4973990;28;96766;-88
2022/11/03 05:14:45;;;;;;;17.35;6.65;;;;;;;8.71;60.98;100852.91;4968983;28;100025;-89
2022/11/03 05:17:22;;;;;;;16.60;7.15;;;;;;;8.64;60.94;100846.03;4935914;28;101714;-88
2022/11/03 05:19:54;;;;;;;15.98;7.10;;;;;;;8.68;61.10;100853.81;4970841;28;97107;-88
2022/11/03 05:22:21;;;;;;;16.52;7.28;;;;;;;8.74;61.13;100842.38;4966457;28;96829;-88
2022/11/03 05:24:49;;;;;;;12.02;6.25;;;;;;;8.39;61.45;100791.53;4972464;28;100373;-88
2022/11/03 05:27:18;;;;;;;16.63;6.75;;;;;;;8.70;61.41;100845.97;4956184;28;100973;-88
2022/11/03 05:29:44;;;;;;;16.98;7.28;;;;;;;8.44;61.27;100792.31;4958019;28;96916;-90
2022/11/03 05:32:14;;;;;;;12.95;7.00;;;;;;;8.73;61.52;100843.28;4960571;28;97099;-88
2022/11/03 05:34:42;;;;;;;14.45;6.47;;;;;;;8.51;61.70;100830.56;4941235;28;101204;-89
2022/11/03 05:37:21;;;;;;;18.88;6.72;;;;;;;8.55;61.72;100837.50;4959852;28;101403;-89
2022/11/03 05:39:47;;;;;;;14.10;6.75;;;;;;;8.50;61.94;100841.06;4969222;28;97371;-89
2022/11/03 05:42:22;;;;;;;21.80;8.07;;;;;;;8.29;62.12;100814.34;4942770;28;97211;-88
2022/11/03 05:44:50;;;;;;;13.00;6.97;;;;;;;8.48;62.14;100845.47;4975802;28;98121;-89
2022/11/03 05:47:36;;;;;;;13.63;6.60;;;;;;;8.44;62.08;100828.09;4943812;28;99958;-89
2022/11/03 05:50:17;;;;;;;13.63;6.60;;;;;;;8.53;62.13;100831.41;4972270;28;97670;-90
2022/11/03 05:52:44;;;;;;;14.02;6.88;;;;;;;8.43;62.12;100815.88;4961396;28;97189;-89
2022/11/03 05:55:29;;;;;;;15.18;6.38;;;;;;;8.57;62.08;100826.97;4972651;28;101188;-89
2022/11/03 05:57:58;;;;;;;13.23;5.65;;;;;;;8.55;62.28;100818.28;4972475;28;98297;-90
2022/11/03 06:00:30;;;;;;;17.73;6.93;;;;;;;8.52;62.10;100816.59;4956878;28;97577;-90
2022/11/03 06:02:57;;;;;;;19.75;6.32;;;;;;;8.58;62.12;100824.34;4954240;28;97088;-90
2022/11/03 06:05:23;;;;;;;16.10;6.40;;;;;;;8.38;62.54;100790.69;4974542;28;101039;-89
2022/11/03 06:07:52;;;;;;;13.18;6.20;;;;;;;8.28;62.40;100788.22;4940568;28;100311;-90
2022/11/03 06:10:25;;;;;;;18.70;6.03;;;;;;;8.47;62.54;100822.81;4965945;28;96923;-90
2022/11/03 06:13:18;;;;;;;16.90;6.35;;;;;;;8.37;62.35;100819.44;4942969;28;97175;-90
2022/11/03 06:15:46;;;;;;;16.02;6.30;;;;;;;8.36;62.54;100822.94;4989439;28;98625;-90
2022/11/03 06:18:23;;;;;;;12.02;6.30;;;;;;;8.36;62.87;100823.81;4953329;28;100267;-89
2022/11/03 06:20:54;;;;;;;16.23;6.40;;;;;;;8.37;62.77;100828.13;4943119;28;97199;-91
2022/11/03 06:23:20;;;;;;;14.00;7.38;;;;;;;8.27;63.24;100830.97;4957164;28;96871;-88
2022/11/03 06:25:47;;;;;;;16.73;6.88;;;;;;;8.33;63.29;100820.38;4969715;28;100859;-89
2022/11/03 06:28:21;;;;;;;13.63;6.30;;;;;;;8.32;62.84;100830.00;4978552;28;100714;-88
2022/11/03 06:30:47;;;;;;;16.85;7.15;;;;;;;8.48;63.06;100835.00;4974860;28;96923;-89
2022/11/03 06:33:39;;;;;;;15.80;6.63;;;;;;;8.36;62.86;100817.72;4958795;28;97370;-89
2022/11/03 06:36:26;;;;;;;15.23;6.40;;;;;;;8.17;62.76;100791.00;4941632;28;101771;-89
2022/11/03 06:38:59;;;;;;;14.30;6.22;;;;;;;8.53;62.94;100848.88;4956682;28;100433;-89
2022/11/03 06:41:35;;;;;;;15.63;6.80;;;;;;;8.64;62.35;100843.41;4959247;28;97154;-89
2022/11/03 06:44:19;;;;;;;17.38;6.40;;;;;;;8.67;62.67;100851.22;4952460;28;97364;-90
2022/11/03 06:46:45;;;;;;;12.40;6.70;;;;;;;8.78;62.15;100841.41;4970865;28;100956;-88
2022/11/03 06:49:32;;;;;;;18.08;7.13;;;;;;;8.70;62.37;100830.25;4973587;28;101215;-89
2022/11/03 06:51:58;;;;;;;12.48;6.70;;;;;;;8.71;62.82;100839.81;4969283;28;97664;-89
2022/11/03 06:54:24;;;;;;;15.32;6.35;;;;;;;8.77;62.74;100843.19;4974791;28;98150;-88
2022/11/03 06:56:49;;;;;;;21.15;7.45;;;;;;;8.73;63.25;100833.66;4974541;28;100141;-89
2022/11/03 06:59:15;;;;;;;26.02;8.10;;;;;;;8.99;62.92;100834.94;4971404;28;98302;-89
2022/11/03 07:01:41;;;;;;;22.25;6.75;;;;;;;9.34;62.35;100843.81;4970468;28;97166;-89
2022/11/03 07:04:22;;;;;;;15.05;7.82;;;;;;;9.55;61.55;100851.25;4972360;28;96944;-88
2022/11/03 07:06:48;;;;;;;17.52;7.07;;;;;;;9.43;60.85;100797.34;4954918;28;101563;-89
2022/11/03 07:09:24;;;;;;;19.42;6.70;;;;;;;9.53;60.40;100795.38;4956857;28;102082;-88
2022/11/03 07:11:56;;;;;;;16.60;5.95;;;;;;;9.83;61.01;100834.91;4971065;28;96762;-86
2022/11/03 07:14:25;;;;;;;12.45;6.25;;;;;;;10.04;60.61;100836.19;4951588;28;97171;-90
2022/11/03 07:16:58;;;;;;;13.98;6.00;;;;;;;10.14;60.54;100833.28;4942139;28;98797;-90
2022/11/03 07:19:29;;;;;;;12.77;6.22;;;;;;;10.27;59.97;100810.28;4955080;28;98509;-89
2022/11/03 07:21:59;;;;;;;17.42;6.57;;;;;;;10.42;59.51;100814.28;4943531;28;96947;-88
2022/11/03 07:24:30;;;;;;;16.70;6.00;;;;;;;10.73;60.04;100839.72;4959852;28;96946;-89
2022/11/03 07:27:11;;;;;;;13.60;6.32;;;;;;;10.99;58.40;100833.78;4968489;28;100440;-87
2022/11/03 07:29:37;;;;;;;19.70;6.27;;;;;;;11.04;58.07;100819.59;4978366;28;96714;-91
2022/11/03 07:32:10;;;;;;;12.32;6.57;;;;;;;11.05;58.45;100831.84;4955582;28;96733;-86
2022/11/03 07:34:35;;;;;;;10.60;5.85;;;;;;;10.99;58.71;100810.13;4980740;28;99046;-88
2022/11/03 07:37:01;;;;;;;14.20;6.45;;;;;;;11.35;58.42;100842.41;4946173;28;100720;-89
2022/11/03 07:39:33;;;;;;;19.83;6.70;;;;;;;11.48;58.26;100825.34;4959647;28;99732;-88
2022/11/03 07:41:59;;;;;;;12.02;6.30;;;;;;;11.64;57.84;100815.25;4989328;28;96828;-86
2022/11/03 07:44:28;;;;;;;17.90;6.95;;;;;;;11.75;57.17;100797.38;4961323;28;97253;-90
2022/11/03 07:46:54;;;;;;;11.00;5.85;;;;;;;12.03;56.96;100790.38;4957806;28;99869;-85
2022/11/03 07:49:27;;;;;;;12.88;6.30;;;;;;;12.54;55.70;100802.72;4953738;28;101401;-85
2022/11/03 07:51:54;;;;;;;11.60;6.55;;;;;;;12.60;56.28;100797.25;4951466;28;97824;-84
2022/11/03 07:54:22;;;;;;;15.55;6.10;;;;;;;12.79;55.89;100789.53;4964414;28;97127;-85
2022/11/03 07:56:54;;;;;;;14.57;5.88;;;;;;;13.09;54.82;100777.03;4973490;28;101891;-84
2022/11/03 07:59:40;;;;;;;10.20;6.20;;;;;;;13.50;55.12;100793.94;4948850;28;101599;-89
2022/11/03 08:02:33;;;;;;;15.88;6.38;;;;;;;13.79;53.52;100791.97;4955622;28;96868;-92
2022/11/03 08:04:59;;;;;;;12.60;6.60;;;;;;;13.81;53.15;100788.31;4969609;28;97153;-91
2022/11/03 08:07:26;;;;;;;14.25;6.53;;;;;;;14.02;53.35;100789.25;4971248;28;101645;-88
2022/11/03 08:09:52;;;;;;;14.55;6.05;;;;;;;14.25;52.34;100772.44;4942989;28;100994;-89
2022/11/03 08:12:18;;;;;;;15.77;7.10;;;;;;;14.32;51.78;100773.03;4954923;28;97225;-89
2022/11/03 08:14:44;;;;;;;14.13;7.43;;;;;;;14.00;52.25;100748.84;4933975;28;97143;-88
2022/11/03 08:17:09;;;;;;;12.98;6.40;;;;;;;14.06;52.37;100760.94;4955095;28;102069;-88
2022/11/03 08:19:35;;;;;;;17.42;6.80;;;;;;;14.10;53.01;100765.16;4944764;28;101431;-88
2022/11/03 08:22:01;;;;;;;13.85;6.40;;;;;;;14.16;52.94;100758.75;4949074;28;96937;-90
2022/11/03 08:24:26;;;;;;;14.43;6.28;;;;;;;14.19;52.17;100733.06;4974236;28;96748;-88
2022/11/03 08:26:52;;;;;;;16.10;6.35;;;;;;;14.41;52.09;100740.09;4956497;28;101680;-90
2022/11/03 08:29:17;;;;;;;13.57;5.63;;;;;;;14.50;51.84;100729.97;4973010;28;101148;-82
2022/11/03 08:31:43;;;;;;;10.73;5.40;;;;;;;14.80;50.81;100729.56;4951547;28;97765;-81
2022/11/03 08:34:09;;;;;;;11.15;4.57;;;;;;;14.91;50.77;100747.59;4951534;28;97597;-82
2022/11/03 08:36:34;;;;;;;12.60;4.72;;;;;;;14.92;50.96;100720.22;4967939;28;101315;-83
2022/11/03 08:39:00;;;;;;;7.88;3.83;;;;;;;15.08;50.37;100723.91;4954716;28;101303;-83
2022/11/03 08:41:26;;;;;;;8.00;4.10;;;;;;;15.30;49.96;100712.31;4954316;28;96943;-83
2022/11/03 08:43:51;;;;;;;13.52;5.10;;;;;;;15.30;50.11;100710.53;4936515;28;97537;-84
2022/11/03 08:46:17;;;;;;;14.45;4.20;;;;;;;15.37;50.37;100705.81;4970257;28;101258;-84
2022/11/03 08:48:42;;;;;;;9.45;4.10;;;;;;;15.43;50.03;100700.22;4935467;28;100878;-84
2022/11/03 08:51:09;;;;;;;10.98;4.95;;;;;;;15.46;49.52;100664.81;4954145;28;98962;-83
2022/11/03 08:53:34;;;;;;;12.52;4.55;;;;;;;15.79;49.48;100681.69;4951672;28;96991;-83
2022/11/03 08:56:00;;;;;;;9.82;4.72;;;;;;;15.67;48.99;100692.88;4950965;28;101578;-83
2022/11/03 08:58:25;;;;;;;10.15;5.03;;;;;;;15.69;49.23;100677.81;4951698;28;101059;-84
2022/11/03 09:00:51;;;;;;;11.30;4.78;;;;;;;15.93;49.25;100691.59;4953181;28;97742;-84
2022/11/03 09:03:17;;;;;;;9.88;5.07;;;;;;;15.98;49.07;100692.22;4928842;28;97432;-85
2022/11/03 09:05:42;;;;;;;7.15;4.32;;;;;;;16.14;48.16;100667.59;4954403;28;101364;-84
2022/11/03 09:08:08;;;;;;;10.48;5.43;;;;;;;16.16;48.96;100673.69;4972716;28;101730;-85
2022/11/03 09:10:34;;;;;;;13.65;4.97;;;;;;;16.07;48.37;100653.84;4955538;28;99447;-83
2022/11/03 09:12:59;;;;;;;10.63;4.43;;;;;;;16.34;48.48;100656.84;4956193;28;97029;-83
2022/11/03 09:15:26;;;;;;;11.88;4.72;;;;;;;16.58;48.24;100667.94;4943465;28;97247;-83
2022/11/03 09:17:52;;;;;;;5.85;3.78;;;;;;;16.62;48.29;100668.63;4971831;28;100809;-85
2022/11/03 09:20:17;;;;;;;12.48;4.43;;;;;;;16.68;47.38;100639.13;4950449;28;97463;-82
2022/11/03 09:22:43;;;;;;;7.35;4.53;;;;;;;17.02;47.54;100655.88;4954561;28;97122;-88
2022/11/03 09:25:09;;;;;;;8.85;3.42;;;;;;;16.88;47.10;100649.53;4971758;28;102108;-83
2022/11/03 09:27:34;;;;;;;7.18;3.47;;;;;;;16.74;46.81;100646.75;4975034;28;100835;-83
2022/11/03 09:30:00;;;;;;;10.98;3.60;;;;;;;16.67;47.29;100646.25;4955179;28;96689;-81
2022/11/03 09:32:25;;;;;;;9.35;2.95;;;;;;;16.55;47.79;100616.88;4945186;28;96977;-82
2022/11/03 09:34:51;;;;;;;8.25;3.72;;;;;;;16.49;47.95;100636.63;4943151;28;101344;-83
2022/11/03 09:37:16;;;;;;;13.93;3.60;;;;;;;16.20;48.33;100616.97;4948997;28;101654;-83
2022/11/03 09:39:42;;;;;;;5.97;2.97;;;;;;;16.05;48.87;100626.56;4938719;28;96685;-84
2022/11/03 09:42:10;;;;;;;6.88;2.65;;;;;;;16.03;48.74;100615.22;4974655;28;96940;-82
2022/11/03 09:44:36;;;;;;;10.93;2.92;;;;;;;16.05;48.46;100600.09;4971357;28;98260;-83
2022/11/03 09:47:03;;;;;;;10.32;3.38;;;;;;;16.17;48.23;100627.72;4959290;28;101654;-83
2022/11/03 09:49:31;;;;;;;8.05;3.08;;;;;;;15.73;49.19;100615.84;4954436;28;96768;-82
2022/11/03 09:51:57;;;;;;;11.57;3.33;;;;;;;15.67;49.24;100617.91;4962064;28;96866;-83
2022/11/03 09:54:23;;;;;;;6.75;3.10;;;;;;;15.48;49.63;100595.03;4988298;28;97956;-83
2022/11/03 09:56:49;;;;;;;7.28;2.80;;;;;;;15.54;50.00;100605.31;4950656;28;101812;-83
2022/11/03 09:59:16;;;;;;;9.60;3.50;;;;;;;15.53;50.96;100606.25;4948350;28;97096;-81
2022/11/03 10:01:44;;;;;;;7.97;3.22;;;;;;;15.31;50.65;100605.59;4945220;28;96958;-82
2022/11/03 10:04:13;;;;;;;9.18;3.10;;;;;;;15.19;51.14;100599.13;4975762;28;101085;-82
2022/11/03 10:06:39;;;;;;;12.15;3.83;;;;;;;15.08;50.97;100583.78;4967909;28;97967;-83
2022/11/03 10:09:07;;;;;;;11.02;3.38;;;;;;;14.92;51.02;100574.84;4944411;28;97522;-82
2022/11/03 10:11:33;;;;;;;7.65;3.35;;;;;;;15.28;50.78;100581.94;4983183;28;97076;-82
2022/11/03 10:13:59;;;;;;;12.80;3.97;;;;;;;15.23;51.03;100579.53;4971079;28;98578;-81
2022/11/03 10:16:25;;;;;;;10.43;2.97;;;;;;;15.31;51.42;100593.22;4972483;28;97337;-81
2022/11/03 10:18:51;;;;;;;9.25;3.83;;;;;;;15.03;51.35;100580.50;4941702;28;97121;-83
2022/11/03 10:21:19;;;;;;;7.45;3.03;;;;;;;14.82;51.96;100544.53;4972397;28;97197;-78
2022/11/03 10:23:45;;;;;;;8.27;3.00;;;;;;;15.04;51.84;100581.34;4956983;28;101174;-83
2022/11/03 10:26:15;;;;;;;9.35;3.53;;;;;;;15.07;51.65;100566.22;4977283;28;100290;-80
2022/11/03 10:28:55;;;;;;;11.18;3.75;;;;;;;15.12;52.11;100556.25;4970461;28;96897;-80
2022/11/03 10:31:21;;;;;;;5.47;2.83;;;;;;;15.05;51.75;100540.78;4952969;28;96906;-80
2022/11/03 10:33:51;;;;;;;7.57;3.30;;;;;;;14.88;52.33;100553.00;4951246;28;97457;-84
2022/11/03 10:36:17;;;;;;;5.03;2.83;;;;;;;14.89;52.69;100557.38;4974330;28;98350;-83
2022/11/03 10:38:43;;;;;;;12.90;3.58;;;;;;;14.88;52.64;100554.81;4974042;28;96848;-82
2022/11/03 10:41:22;;;;;;;7.93;3.22;;;;;;;14.73;52.95;100548.47;4986986;28;96931;-82
2022/11/03 10:44:14;;;;;;;7.95;3.42;;;;;;;14.46;53.71;100546.16;4983498;28;97693;-84
2022/11/03 10:46:40;;;;;;;10.15;3.70;;;;;;;14.55;54.20;100541.41;4973267;28;101296;-82
2022/11/03 10:49:17;;;;;;;7.93;3.28;;;;;;;14.82;53.09;100520.75;4968752;28;98171;-81
2022/11/03 10:51:45;;;;;;;7.85;3.20;;;;;;;14.67;53.98;100525.00;4957603;28;97180;-82
2022/11/03 10:54:14;;;;;;;13.15;3.72;;;;;;;14.71;54.13;100516.81;4971990;28;101028;-82
2022/11/03 10:56:41;;;;;;;6.13;3.13;;;;;;;14.71;53.97;100530.03;4978299;28;99248;-83
2022/11/03 10:59:15;;;;;;;8.70;3.65;;;;;;;14.55;54.47;100518.50;4948283;28;97198;-83
2022/11/03 11:01:41;;;;;;;9.80;3.35;;;;;;;14.57;54.51;100506.06;4951674;28;97509;-84
2022/11/03 11:04:06;;;;;;;12.48;4.00;;;;;;;14.72;54.62;100509.78;4972672;28;97475;-85
2022/11/03 11:06:32;;;;;;;10.10;3.47;;;;;;;14.53;54.44;100471.94;4940048;28;100957;-84
2022/11/03 11:09:03;;;;;;;9.02;3.22;;;;;;;14.47;54.91;100473.91;4956102;28;97108;-81
2022/11/03 11:11:29;;;;;;;11.38;4.05;;;;;;;14.56;54.81;100492.94;4955086;28;97229;-80
2022/11/03 11:14:20;;;;;;;7.60;3.30;;;;;;;14.34;55.79;100485.13;4983892;28;101391;-81
2022/11/03 11:16:50;;;;;;;14.52;3.97;;;;;;;14.43;55.40;100480.28;4973256;28;101129;-81
2022/11/03 11:19:16;;;;;;;9.68;4.15;;;;;;;14.52;55.25;100470.25;4967311;28;96827;-82
2022/11/03 11:21:41;;;;;;;10.55;3.92;;;;;;;14.56;55.52;100474.44;4957937;28;96948;-82
2022/11/03 11:24:10;;;;;;;9.95;3.25;;;;;;;14.61;54.95;100453.97;4969340;28;101129;-82
2022/11/03 11:26:37;;;;;;;9.02;2.97;;;;;;;14.66;54.72;100466.00;4991476;28;98014;-81
2022/11/03 11:29:09;;;;;;;9.43;2.72;;;;;;;14.68;54.80;100463.28;4989406;28;97133;-82
2022/11/03 11:31:35;;;;;;;;;;;;;;;14.48;54.28;100451.84;4977930;28;97162;-85
2022/11/03 11:34:09;;;;;;;10.10;3.03;;;;;;;14.80;53.20;100451.25;4943916;28;101885;-83
2022/11/03 11:36:58;;;;;;;6.00;2.50;;;;;;;14.67;53.28;100445.72;4970864;28;97678;-82
2022/11/03 11:39:26;;;;;;;8.20;2.58;;;;;;;14.79;53.47;100442.47;4959140;28;96955;-84
2022/11/03 11:42:15;;;;;;;9.23;3.10;;;;;;;14.76;53.43;100441.78;4987380;28;97233;-83
2022/11/03 11:44:45;;;;;;;7.95;2.40;;;;;;;14.59;53.99;100440.81;4953843;28;101307;-83